Terminal Aerodrome Forecast
Issued by NWS

Home | Current Version | Previous Version | Text Only | Print | Product List | Glossary On
Versions: 1 2 3 4 5 6 7 8 9 10 11 12 13
000
FTUS46 KSEW 281700
TAFBFI
TAF
KBFI 281720Z 2818/2918 VRB04KT P6SM SCT013 BKN050
     FM282100 01005KT P6SM SCT020 BKN060
     FM290800 02006KT P6SM SCT040 BKN080
     FM291500 03010KT P6SM SCT080 BKN250=

USA.gov is the U.S. government's official web portal to all federal, state and local government web resources and services.